| time (UTC) | temp F | wind direction | speed MPH | gust MPH | rain 1hr in | rain 24hr in | rain mn in | humidity % | barometer mb |
| 20260901233034 | 81 | 26 | 0.0 | 2.0 | 0.00 | 1.56 | 1.50 | 1 | 1013.3 |
| 20260901231529 | 83 | 26 | 0.0 | 2.0 | 0.00 | 1.57 | 1.50 | 1 | 1013.0 |
| 20260901230025 | 83 | 24 | 0.0 | 2.0 | 0.00 | 1.57 | 1.50 | 1 | 1012.8 |
| 20260901224521 | 84 | 24 | 0.0 | 2.0 | 0.00 | 1.57 | 1.50 | 1 | 1013.0 |
| 20260901223017 | 84 | 24 | 1.0 | 4.0 | 0.00 | 1.57 | 1.50 | 1 | 1012.7 |
| 20260901221513 | 85 | 348 | 1.0 | 3.0 | 0.00 | 1.61 | 1.50 | 1 | 1012.7 |
| 20260901220010 | 84 | 348 | 0.0 | 3.0 | 0.00 | 1.61 | 1.50 | 1 | 1013.0 |
| 20260901214519 | 84 | 348 | 0.0 | 2.0 | 0.00 | 1.61 | 1.50 | 1 | 1012.8 |
| 20260901213002 | 84 | 348 | 0.0 | 1.0 | 0.00 | 1.61 | 1.50 | 1 | 1012.8 |
| 20260901211559 | 85 | 348 | 2.0 | 6.0 | 0.00 | 1.61 | 1.50 | 1 | 1012.7 |
| 20260901210111 | 85 | 350 | 1.0 | 5.0 | 0.00 | 1.61 | 1.50 | 1 | 1012.4 |
| 20260901204548 | 84 | 9 | 1.0 | 4.0 | 0.00 | 1.61 | 1.50 | 1 | 1012.6 |
| 20260901203046 | 84 | 42 | 3.0 | 6.0 | 0.00 | 1.61 | 1.50 | 1 | 1012.8 |
| 20260901201540 | 84 | 338 | 2.0 | 4.0 | 0.00 | 1.67 | 1.50 | 1 | 1013.0 |
| 20260901200036 | 84 | 268 | 0.0 | 4.0 | 0.00 | 1.67 | 1.50 | 1 | 1012.9 |
| 20260901194534 | 83 | 207 | 0.0 | 2.0 | 0.00 | 1.67 | 1.50 | 1 | 1013.0 |
| 20260901193030 | 82 | 207 | 1.0 | 7.0 | 0.00 | 1.67 | 1.50 | 1 | 1013.1 |
| 20260901191534 | 80 | 291 | 2.0 | 5.0 | 0.00 | 1.67 | 1.50 | 1 | 1013.0 |
| 20260901190018 | 78 | 218 | 2.0 | 7.0 | 0.00 | 1.67 | 1.50 | 1 | 1013.0 |
| 20260901184514 | 77 | 266 | 1.0 | 5.0 | 0.00 | 1.67 | 1.50 | 1 | 1013.1 |
| 20260901183010 | 77 | 92 | 1.0 | 4.0 | 0.00 | 1.67 | 1.50 | 1 | 1013.0 |
| 20260901181506 | 76 | 92 | 0.0 | 6.0 | 0.00 | 1.70 | 1.50 | 1 | 1012.9 |
| 20260901180001 | 76 | 92 | 1.0 | 4.0 | 0.00 | 1.70 | 1.50 | 1 | 1012.9 |
| 20260901174557 | 74 | 96 | 0.0 | 1.0 | 0.00 | 1.70 | 1.50 | 1 | 1012.9 |
| 20260901173056 | 73 | 92 | 0.0 | 2.0 | 0.00 | 1.70 | 1.50 | 1 | 1012.9 |
| 20260901171554 | 72 | 103 | 0.0 | 2.0 | 0.00 | 1.79 | 1.50 | 1 | 1013.0 |
| 20260901170044 | 72 | 101 | 0.0 | 2.0 | 0.00 | 1.79 | 1.50 | 1 | 1012.9 |
| 20260901164540 | 72 | 99 | 0.0 | 2.0 | 0.00 | 1.79 | 1.50 | 1 | 1013.0 |
| 20260901163039 | 72 | 98 | 0.0 | 2.0 | 0.00 | 1.79 | 1.50 | 1 | 1013.1 |
| 20260901161530 | 71 | 107 | 0.0 | 3.0 | 0.00 | 1.92 | 1.50 | 1 | 1013.1 |
| 20260901160034 | 70 | 106 | 1.0 | 6.0 | 0.00 | 1.92 | 1.50 | 1 | 1013.2 |
| 20260901154521 | 70 | 105 | 1.0 | 3.0 | 0.00 | 1.92 | 1.50 | 1 | 1013.4 |
| 20260901153025 | 70 | 103 | 0.0 | 3.0 | 0.00 | 1.92 | 1.50 | 1 | 1013.4 |
| 20260901151512 | 70 | 102 | 0.0 | 2.0 | 0.01 | 1.92 | 1.50 | 1 | 1013.3 |
| 20260901150015 | 70 | 101 | 0.0 | 3.0 | 0.12 | 1.92 | 1.50 | 1 | 1013.3 |
| 20260901144508 | 69 | 101 | 0.0 | 3.0 | 0.16 | 1.92 | 1.50 | 1 | 1013.2 |
| 20260901143100 | 69 | 101 | 0.0 | 2.0 | 0.17 | 1.92 | 1.50 | 1 | 1013.3 |
| 20260901141601 | 69 | 101 | 0.0 | 1.0 | 0.20 | 1.91 | 1.49 | 1 | 1013.3 |
| 20260901140056 | 69 | 101 | 0.0 | 3.0 | 0.21 | 1.81 | 1.39 | 1 | 1013.8 |
| 20260901134546 | 69 | 101 | 0.0 | 2.0 | 0.51 | 1.76 | 1.34 | 1 | 1013.4 |
| 20260901133042 | 69 | 101 | 2.0 | 6.0 | 0.76 | 1.75 | 1.33 | 1 | 1013.6 |
| 20260901131541 | 68 | 101 | 0.0 | 4.0 | 0.88 | 1.71 | 1.29 | 1 | 1013.5 |
| 20260901130033 | 68 | 100 | 0.0 | 3.0 | 0.98 | 1.56 | 1.13 | 1 | 1014.1 |
| 20260901124538 | 68 | 100 | 1.0 | 3.0 | 0.75 | 1.25 | 0.83 | 1 | 1014.0 |
| 20260901123024 | 68 | 100 | 2.0 | 4.0 | 0.51 | 0.98 | 0.56 | 1 | 1014.2 |
| 20260901121520 | 68 | 100 | 0.0 | 4.0 | 0.34 | 0.81 | 0.39 | 1 | 1014.6 |
| 20260901120015 | 67 | 101 | 0.0 | 3.0 | 0.12 | 0.57 | 0.16 | 1 | 1014.0 |
| 20260901114510 | 67 | 101 | 0.0 | 2.0 | 0.04 | 0.50 | 0.08 | 1 | 1014.0 |
| 20260901113006 | 67 | 101 | 0.0 | 4.0 | 0.01 | 0.47 | 0.05 | 1 | 1014.0 |
| 20260901111503 | 67 | 101 | 0.0 | 3.0 | 0.00 | 0.46 | 0.04 | 1 | 1013.6 |
| 20260901110058 | 67 | 101 | 2.0 | 6.0 | 0.00 | 0.46 | 0.04 | 1 | 1013.3 |
| 20260901104554 | 66 | 101 | 0.0 | 2.0 | 0.00 | 0.46 | 0.04 | 1 | 1013.3 |
| 20260901103059 | 66 | 101 | 0.0 | 1.0 | 0.00 | 0.46 | 0.04 | 1 | 1013.7 |
| 20260901101545 | 66 | 101 | 0.0 | 1.0 | 0.00 | 0.46 | 0.04 | 1 | 1013.3 |
| 20260901100041 | 66 | 101 | 0.0 | 2.0 | 0.00 | 0.46 | 0.04 | 1 | 1013.5 |
| 20260901094539 | 66 | 101 | 0.0 | 3.0 | 0.00 | 0.46 | 0.04 | 1 | 1013.4 |
| 20260901093034 | 66 | 101 | 0.0 | 1.0 | 0.00 | 0.46 | 0.04 | 1 | 1013.7 |
| 20260901091528 | 66 | 101 | 0.0 | 0.0 | 0.01 | 0.46 | 0.04 | 1 | 1013.7 |
| 20260901090023 | 66 | 101 | 0.0 | 0.0 | 0.02 | 0.46 | 0.04 | 1 | 1013.8 |
| 20260901084519 | 66 | 101 | 0.0 | 1.0 | 0.04 | 0.46 | 0.04 | 1 | 1014.2 |
| 20260901083015 | 66 | 101 | 0.0 | 1.0 | 0.04 | 0.46 | 0.04 | 1 | 1014.4 |
| 20260901081510 | 66 | 101 | 0.0 | 1.0 | 0.03 | 0.45 | 0.03 | 1 | 1014.5 |
| 20260901080006 | 66 | 101 | 0.0 | 1.0 | 0.02 | 0.44 | 0.02 | 1 | 1014.6 |
| 20260901074501 | 66 | 101 | 0.0 | 1.0 | 0.00 | 0.42 | 0.00 | 1 | 1014.4 |
| 20260901073105 | 66 | 101 | 0.0 | 0.0 | 0.00 | 0.42 | 0.00 | 1 | 1014.5 |
| 20260901071553 | 66 | 101 | 0.0 | 0.0 | 0.00 | 0.42 | 0.00 | 1 | 1014.7 |
| 20260901070051 | 66 | 101 | 0.0 | 1.0 | 0.00 | 0.42 | 0.00 | 1 | 1014.6 |
| 20260901064549 | 66 | 101 | 0.0 | 1.0 | 0.00 | 0.42 | 0.00 | 1 | 1014.6 |
| 20260901063050 | 66 | 101 | 0.0 | 1.0 | 0.00 | 0.42 | 0.00 | 1 | 1014.5 |
| 20260901061535 | 66 | 101 | 0.0 | 0.0 | 0.00 | 0.42 | 0.00 | 1 | 1014.8 |
| 20260901060030 | 66 | 101 | 0.0 | 0.0 | 0.00 | 0.42 | 0.00 | 1 | 1015.0 |
| 20260901054527 | 66 | 101 | 0.0 | 0.0 | 0.00 | 0.42 | 0.00 | 1 | 1015.2 |
| 20260901053025 | 66 | 101 | 0.0 | 0.0 | 0.00 | 0.42 | 0.00 | 1 | 1015.3 |
| 20260901051517 | 66 | 101 | 0.0 | 1.0 | 0.00 | 0.42 | 0.00 | 1 | 1015.4 |
| 20260901050013 | 66 | 101 | 0.0 | 0.0 | 0.00 | 0.42 | 0.00 | 1 | 1015.3 |
| 20260901044509 | 66 | 101 | 0.0 | 0.0 | 0.00 | 0.42 | 0.00 | 1 | 1015.5 |
| 20260901043006 | 66 | 101 | 0.0 | 0.0 | 0.00 | 0.42 | 0.00 | 1 | 1015.5 |
| 20260901041600 | 66 | 101 | 0.0 | 0.0 | 0.00 | 0.42 | 0.42 | 1 | 1015.4 |
| 20260901040056 | 66 | 101 | 0.0 | 0.0 | 0.00 | 0.42 | 0.42 | 1 | 1015.5 |
| 20260901034554 | 66 | 101 | 0.0 | 1.0 | 0.00 | 0.42 | 0.42 | 1 | 1015.5 |
| 20260901033048 | 67 | 101 | 0.0 | 0.0 | 0.00 | 0.42 | 0.42 | 1 | 1015.5 |
| 20260901031543 | 67 | 101 | 0.0 | 1.0 | 0.00 | 0.42 | 0.42 | 1 | 1015.6 |
| 20260901030038 | 67 | 101 | 0.0 | 1.0 | 0.00 | 0.42 | 0.42 | 1 | 1015.5 |
| 20260901024535 | 67 | 101 | 0.0 | 0.0 | 0.00 | 0.42 | 0.42 | 1 | 1015.5 |
| 20260901023030 | 68 | 101 | 0.0 | 1.0 | 0.00 | 0.42 | 0.42 | 1 | 1015.8 |
| 20260901021528 | 67 | 101 | 0.0 | 1.0 | 0.00 | 0.42 | 0.42 | 1 | 1015.7 |
| 20260901020023 | 67 | 101 | 0.0 | 1.0 | 0.01 | 0.42 | 0.42 | 1 | 1015.8 |
| 20260901014517 | 67 | 101 | 0.0 | 1.0 | 0.04 | 0.42 | 0.42 | 1 | 1015.9 |
| 20260901013012 | 67 | 101 | 0.0 | 1.0 | 0.05 | 0.42 | 0.42 | 1 | 1016.0 |
| 20260901011508 | 67 | 101 | 0.0 | 3.0 | 0.05 | 0.41 | 0.41 | 1 | 1016.1 |
| 20260901010003 | 68 | 101 | 1.0 | 3.0 | 0.05 | 0.41 | 0.41 | 1 | 1016.0 |
| 20260901004600 | 68 | 101 | 0.0 | 2.0 | 0.02 | 0.38 | 0.38 | 1 | 1015.8 |
| 20260901003055 | 68 | 101 | 0.0 | 2.0 | 0.01 | 0.37 | 0.37 | 1 | 1015.6 |
| 20260901001551 | 68 | 101 | 1.0 | 2.0 | 0.00 | 0.36 | 0.36 | 1 | 1015.4 |
| 20260901000046 | 68 | 101 | 0.0 | 2.0 | 0.00 | 0.36 | 0.36 | 1 | 1015.5 |
| 20260831234549 | 68 | 101 | 0.0 | 1.0 | 0.00 | 0.36 | 0.36 | 1 | 1015.6 |